createdAt,value
2022-11-30T00:03:44.789Z,93.00
2022-11-30T00:08:48.669Z,93.10
2022-11-30T00:13:51.041Z,93.00
2022-11-30T00:18:53.778Z,93.00
2022-11-30T00:23:57.569Z,93.00
2022-11-30T00:29:00.068Z,93.00
2022-11-30T00:34:04.022Z,93.00
2022-11-30T00:39:08.039Z,93.00
2022-11-30T00:44:10.365Z,93.00
2022-11-30T00:49:12.760Z,93.00
2022-11-30T00:54:16.729Z,93.00
2022-11-30T00:59:22.251Z,93.00
2022-11-30T01:04:24.540Z,93.00
2022-11-30T01:09:28.413Z,93.10
2022-11-30T01:14:30.605Z,93.00
2022-11-30T01:19:32.988Z,92.90
2022-11-30T01:24:36.741Z,93.00
2022-11-30T01:29:38.963Z,93.10
2022-11-30T01:34:41.297Z,93.10
2022-11-30T01:39:45.168Z,93.10
2022-11-30T01:44:53.971Z,93.10
2022-11-30T01:50:01.951Z,93.00
2022-11-30T01:55:14.875Z,93.10
2022-11-30T02:00:18.207Z,93.00
2022-11-30T02:05:23.165Z,93.00
2022-11-30T02:10:30.360Z,93.00
2022-11-30T02:15:36.152Z,93.00
2022-11-30T02:21:00.090Z,92.70
2022-11-30T02:26:18.574Z,92.90
2022-11-30T02:31:27.011Z,93.10
2022-11-30T02:36:31.062Z,93.10
2022-11-30T02:41:38.183Z,93.10
2022-11-30T02:46:53.943Z,93.20
2022-11-30T02:51:58.157Z,93.20
2022-11-30T02:57:00.476Z,93.10
2022-11-30T03:02:04.235Z,93.10
2022-11-30T03:07:06.510Z,93.10
2022-11-30T03:12:08.890Z,93.10
2022-11-30T03:17:12.788Z,93.10
2022-11-30T03:22:15.079Z,93.10
2022-11-30T03:27:17.538Z,93.10
2022-11-30T03:32:21.396Z,93.10
2022-11-30T03:37:23.656Z,93.10
2022-11-30T03:42:26.023Z,93.00
2022-11-30T03:47:29.880Z,93.00
2022-11-30T03:52:32.162Z,93.00
2022-11-30T03:57:34.444Z,93.00
2022-11-30T04:02:44.271Z,93.00
2022-11-30T04:07:47.453Z,92.90
2022-11-30T04:12:49.745Z,92.90
2022-11-30T04:17:53.524Z,92.90
2022-11-30T04:22:57.851Z,92.90
2022-11-30T04:28:00.117Z,92.90
2022-11-30T04:33:04.726Z,93.00
2022-11-30T04:38:07.021Z,93.00
2022-11-30T04:43:10.062Z,93.00
2022-11-30T04:48:14.741Z,93.00
2022-11-30T04:53:17.087Z,92.90
2022-11-30T04:58:19.497Z,92.90
2022-11-30T05:03:23.694Z,92.90
2022-11-30T05:08:26.074Z,93.00
2022-11-30T05:13:29.070Z,93.10
2022-11-30T05:18:33.060Z,93.20
2022-11-30T05:23:35.278Z,93.20
2022-11-30T05:28:39.690Z,93.20
2022-11-30T05:33:43.483Z,93.30
2022-11-30T05:38:46.107Z,93.30
2022-11-30T05:43:48.530Z,93.30
2022-11-30T05:48:52.346Z,93.20
2022-11-30T05:54:00.571Z,93.20
2022-11-30T05:59:02.874Z,93.20
2022-11-30T06:04:09.025Z,93.20
2022-11-30T06:09:11.700Z,93.20
2022-11-30T06:14:25.339Z,93.30
2022-11-30T06:19:29.134Z,93.20
2022-11-30T06:24:31.426Z,93.00
2022-11-30T06:29:33.740Z,93.00
2022-11-30T06:34:37.565Z,92.90
2022-11-30T06:45:07.067Z,93.10
2022-11-30T06:50:13.069Z,93.10
2022-11-30T06:55:16.959Z,93.10
2022-11-30T07:00:19.866Z,93.20
2022-11-30T07:05:23.696Z,93.20
2022-11-30T07:10:26.059Z,93.30
2022-11-30T07:15:28.507Z,93.40
2022-11-30T07:20:42.107Z,93.40
2022-11-30T07:25:44.378Z,93.30
2022-11-30T07:30:46.715Z,93.40
2022-11-30T07:35:52.547Z,93.90
2022-11-30T07:41:00.937Z,93.50
2022-11-30T07:46:03.943Z,93.50
2022-11-30T07:51:10.811Z,93.50
2022-11-30T07:56:15.081Z,93.40
2022-11-30T08:01:20.044Z,93.30
2022-11-30T08:06:28.156Z,93.20
2022-11-30T08:11:32.207Z,93.10
2022-11-30T08:16:37.296Z,93.20
2022-11-30T08:21:41.289Z,93.30
2022-11-30T08:26:51.772Z,93.30
2022-11-30T08:31:54.163Z,93.30
2022-11-30T08:36:58.120Z,93.30
2022-11-30T08:42:00.744Z,93.10
2022-11-30T08:47:03.286Z,93.00
2022-11-30T08:52:22.695Z,93.00
2022-11-30T08:57:25.783Z,93.10
2022-11-30T09:02:28.259Z,93.00
2022-11-30T09:07:33.191Z,92.90
2022-11-30T09:12:37.950Z,93.00
2022-11-30T09:17:40.399Z,93.10
2022-11-30T09:22:44.354Z,93.40
2022-11-30T09:27:46.739Z,93.00
2022-11-30T09:32:49.130Z,93.20
2022-11-30T09:37:54.640Z,93.30
2022-11-30T09:43:06.874Z,93.40
2022-11-30T09:48:39.795Z,93.40
2022-11-30T09:53:48.201Z,93.40
2022-11-30T09:58:56.327Z,93.50
2022-11-30T10:03:59.331Z,93.50
2022-11-30T10:09:29.775Z,93.40
2022-11-30T10:15:00.349Z,93.00
2022-11-30T10:20:28.529Z,93.00
2022-11-30T10:25:41.062Z,93.00
2022-11-30T10:30:56.607Z,93.00
2022-11-30T10:36:04.839Z,92.50
2022-11-30T10:41:13.803Z,92.80
2022-11-30T10:46:21.993Z,92.90
2022-11-30T10:51:34.354Z,93.10
2022-11-30T10:56:38.317Z,93.60
2022-11-30T11:01:42.002Z,93.20
2022-11-30T11:06:47.076Z,93.30
2022-11-30T11:11:54.316Z,93.30
2022-11-30T11:16:57.578Z,93.30
2022-11-30T11:22:03.128Z,93.10
2022-11-30T11:27:07.107Z,93.30
2022-11-30T11:32:21.389Z,93.30
2022-11-30T11:37:25.746Z,93.20
2022-11-30T11:42:32.262Z,93.10
2022-11-30T11:47:39.795Z,93.10
2022-11-30T11:52:44.907Z,92.60
2022-11-30T11:57:53.398Z,92.70
2022-11-30T12:03:01.549Z,92.90
2022-11-30T12:08:11.762Z,93.00
2022-11-30T12:13:18.406Z,93.10
2022-11-30T12:18:24.583Z,93.00
2022-11-30T12:23:46.513Z,93.00
2022-11-30T12:29:04.917Z,93.00
2022-11-30T12:34:14.036Z,93.00
2022-11-30T12:39:26.385Z,93.40
2022-11-30T12:44:47.063Z,93.00
2022-11-30T12:50:06.055Z,92.80
2022-11-30T12:55:25.084Z,92.90
2022-11-30T13:00:37.624Z,93.00
2022-11-30T13:05:45.934Z,93.00
2022-11-30T13:10:57.354Z,93.00
2022-11-30T13:16:04.854Z,92.90
2022-11-30T13:21:17.093Z,92.70
2022-11-30T13:26:27.160Z,92.90
2022-11-30T13:31:39.516Z,92.90
2022-11-30T13:36:43.797Z,92.90
2022-11-30T13:41:48.118Z,92.90
2022-11-30T13:46:53.378Z,92.70
2022-11-30T13:52:21.522Z,92.80
2022-11-30T13:58:02.708Z,92.70
2022-11-30T14:03:28.664Z,92.50
2022-11-30T14:08:37.020Z,92.70
2022-11-30T14:13:45.842Z,92.90
2022-11-30T14:18:49.975Z,92.90
2022-11-30T14:23:57.772Z,92.90
2022-11-30T14:29:17.903Z,92.90
2022-11-30T14:34:24.562Z,92.90
2022-11-30T14:39:34.421Z,92.90
2022-11-30T14:44:40.849Z,92.90
2022-11-30T14:49:52.692Z,92.90
2022-11-30T14:55:04.522Z,92.90
2022-11-30T15:00:14.745Z,92.90
2022-11-30T15:05:29.980Z,92.90
2022-11-30T15:10:33.714Z,92.90
2022-11-30T15:15:41.411Z,92.90
2022-11-30T15:20:51.306Z,92.90
2022-11-30T15:25:58.230Z,92.90
2022-11-30T15:31:04.593Z,92.90
2022-11-30T15:36:40.693Z,92.90
2022-11-30T15:41:35.279Z,92.90
2022-11-30T15:46:46.401Z,92.90
2022-11-30T15:52:00.878Z,92.90
2022-11-30T15:57:09.420Z,92.90
2022-11-30T16:02:27.867Z,92.90
2022-11-30T16:07:34.692Z,92.90
2022-11-30T16:12:37.102Z,92.90
2022-11-30T16:17:41.586Z,92.90
2022-11-30T16:22:48.897Z,92.90
2022-11-30T16:27:51.887Z,92.80
2022-11-30T16:32:54.374Z,92.80
2022-11-30T16:37:58.015Z,92.80
2022-11-30T16:43:00.696Z,92.90
2022-11-30T16:48:03.483Z,92.80
2022-11-30T16:53:11.959Z,92.70
2022-11-30T16:58:14.160Z,92.70
2022-11-30T17:03:23.256Z,92.80
2022-11-30T17:08:27.248Z,92.70
2022-11-30T17:13:29.538Z,92.80
2022-11-30T17:18:31.791Z,92.90
2022-11-30T17:23:35.787Z,92.90
2022-11-30T17:28:38.087Z,92.90
2022-11-30T17:33:46.456Z,92.90
2022-11-30T17:38:51.966Z,92.90
2022-11-30T17:43:54.260Z,92.90
2022-11-30T17:48:56.465Z,92.90
2022-11-30T17:54:00.098Z,92.90
2022-11-30T17:59:05.198Z,92.90
2022-11-30T18:04:07.393Z,92.90
2022-11-30T18:09:11.127Z,92.90
2022-11-30T18:14:13.334Z,92.90
2022-11-30T18:19:15.504Z,92.90
2022-11-30T18:24:23.911Z,92.90
2022-11-30T18:29:28.107Z,92.90
2022-11-30T18:34:30.380Z,92.80
2022-11-30T18:39:35.817Z,92.90
2022-11-30T18:44:38.057Z,92.80
2022-11-30T18:49:40.585Z,92.60
2022-11-30T18:54:46.544Z,92.70
2022-11-30T18:59:53.650Z,92.70
2022-11-30T19:04:56.325Z,92.80
2022-11-30T19:10:00.095Z,92.70
2022-11-30T19:15:02.442Z,92.80
2022-11-30T19:20:05.537Z,92.60
2022-11-30T19:25:10.318Z,92.70
2022-11-30T19:30:15.186Z,92.80
2022-11-30T19:35:17.498Z,92.80
2022-11-30T19:40:21.154Z,92.80
2022-11-30T19:45:23.628Z,92.90
2022-11-30T19:50:26.126Z,92.90
2022-11-30T19:55:29.792Z,92.90
2022-11-30T20:00:32.093Z,92.90
2022-11-30T20:05:35.272Z,93.00
2022-11-30T20:10:40.523Z,93.10
2022-11-30T20:15:43.047Z,93.20
2022-11-30T20:20:45.627Z,93.20
2022-11-30T20:25:49.408Z,93.20
2022-11-30T20:30:54.892Z,93.20
2022-11-30T20:35:57.706Z,93.20
2022-11-30T20:41:04.945Z,93.10
2022-11-30T20:46:15.566Z,93.10
2022-11-30T20:51:30.705Z,93.10
2022-11-30T20:56:38.038Z,93.10
2022-11-30T21:01:43.528Z,93.00
2022-11-30T21:06:46.751Z,93.00
2022-11-30T21:26:58.826Z,92.50
2022-11-30T21:32:02.352Z,93.00
2022-11-30T21:37:04.541Z,93.00
2022-11-30T21:42:06.578Z,92.90
2022-11-30T21:47:10.104Z,92.90
2022-11-30T21:52:12.173Z,92.80
2022-11-30T21:57:14.281Z,92.80
2022-11-30T22:02:17.835Z,92.80
2022-11-30T22:07:20.040Z,92.80
2022-11-30T22:12:22.202Z,92.80
2022-11-30T22:17:25.723Z,92.80
2022-11-30T22:22:30.510Z,92.80
2022-11-30T22:27:36.008Z,92.80
2022-11-30T22:32:43.351Z,92.80
2022-11-30T22:37:45.918Z,92.70
2022-11-30T22:42:48.030Z,92.70
2022-11-30T22:47:51.515Z,92.70
2022-11-30T22:53:06.698Z,92.60
2022-11-30T22:58:08.757Z,92.60
2022-11-30T23:03:12.403Z,92.60
2022-11-30T23:08:14.640Z,92.60
2022-11-30T23:13:16.898Z,92.60
2022-11-30T23:18:20.630Z,92.60
2022-11-30T23:23:22.863Z,92.60
2022-11-30T23:28:24.958Z,92.60
2022-11-30T23:33:28.463Z,92.60
2022-11-30T23:38:30.607Z,92.50
2022-11-30T23:43:33.536Z,92.50
2022-11-30T23:48:37.479Z,92.60
2022-11-30T23:53:39.516Z,92.60
2022-11-30T23:58:42.160Z,92.80
